Time;durP1;ratioP1;P1;durP2;ratioP2;P2;SDS_P1;SDS_P2;PMS_P1;PMS_P2;Temp;Humidity;BMP_temperature;BMP_pressure;BME280_temperature;BME280_humidity;BME280_pressure;Samples;Min_cycle;Max_cycle;Signal;HPM_P1;HPM_P2
2021/01/01 00:01:41;;;;;;;333.38;267.48;;;;;;;4.33;64.32;100611.06;5031277;28;20037;-81
2021/01/01 00:04:07;;;;;;;366.60;289.75;;;;;;;4.39;64.33;100618.50;5045059;28;20029;-81
2021/01/01 00:06:33;;;;;;;367.98;280.73;;;;;;;4.38;64.19;100612.25;5046409;28;20045;-81
2021/01/01 00:08:59;;;;;;;345.08;255.98;;;;;;;4.40;64.11;100618.31;5039643;28;20087;-81
2021/01/01 00:11:25;;;;;;;361.00;278.35;;;;;;;4.23;64.01;100609.34;5046371;28;20467;-81
2021/01/01 00:13:51;;;;;;;357.02;263.95;;;;;;;4.38;64.14;100623.00;5029559;28;20037;-81
2021/01/01 00:16:16;;;;;;;348.60;255.45;;;;;;;4.38;64.32;100620.31;5046809;28;20025;-81
2021/01/01 00:18:43;;;;;;;343.00;258.80;;;;;;;4.37;64.20;100615.09;5062513;28;20132;-81
2021/01/01 00:21:09;;;;;;;331.77;254.25;;;;;;;4.43;64.35;100633.28;5047080;28;20067;-81
2021/01/01 00:23:35;;;;;;;315.02;240.68;;;;;;;4.38;64.10;100627.56;5043513;28;20036;-81
2021/01/01 00:26:01;;;;;;;312.15;236.65;;;;;;;4.33;63.96;100624.50;5050289;28;20041;-81
2021/01/01 00:28:27;;;;;;;310.98;244.25;;;;;;;4.30;63.97;100623.81;5045631;28;20139;-81
2021/01/01 00:30:53;;;;;;;332.40;255.65;;;;;;;4.26;63.94;100621.59;5047785;28;20131;-80
2021/01/01 00:33:19;;;;;;;352.90;265.15;;;;;;;4.28;64.42;100623.13;5047304;28;20025;-80
2021/01/01 00:35:44;;;;;;;334.88;253.60;;;;;;;4.26;64.33;100611.69;5047182;28;20080;-80
2021/01/01 00:38:10;;;;;;;345.35;270.13;;;;;;;4.28;64.31;100615.06;5057723;28;20115;-80
2021/01/01 00:40:35;;;;;;;341.00;277.27;;;;;;;4.27;64.52;100607.16;5044981;28;20144;-80
2021/01/01 00:43:01;;;;;;;353.17;282.63;;;;;;;4.29;64.45;100608.69;5027031;28;20071;-80
2021/01/01 00:45:26;;;;;;;431.75;334.25;;;;;;;4.40;64.74;100623.72;5046038;28;20494;-80
2021/01/01 00:47:52;;;;;;;491.23;363.05;;;;;;;4.41;64.89;100620.00;5047454;28;20029;-80
2021/01/01 00:50:17;;;;;;;487.98;363.00;;;;;;;4.38;64.43;100609.53;5030423;28;20036;-81
2021/01/01 00:52:43;;;;;;;448.88;351.10;;;;;;;4.47;64.38;100613.13;5047231;28;20487;-79
2021/01/01 00:55:09;;;;;;;470.55;353.98;;;;;;;4.42;64.31;100610.09;5061698;28;20036;-80
2021/01/01 00:57:34;;;;;;;532.88;403.48;;;;;;;4.46;64.68;100612.28;5044578;28;20033;-80
2021/01/01 01:00:00;;;;;;;517.22;404.80;;;;;;;4.51;64.43;100616.31;5046759;28;20033;-80
2021/01/01 01:02:25;;;;;;;494.23;363.58;;;;;;;4.44;64.20;100624.22;5046901;28;20068;-81
2021/01/01 01:04:51;;;;;;;499.33;380.80;;;;;;;4.37;64.04;100613.25;5046326;28;20029;-81
2021/01/01 01:07:16;;;;;;;505.75;390.02;;;;;;;4.26;64.17;100608.16;5046947;28;20082;-81
2021/01/01 01:09:42;;;;;;;522.13;399.85;;;;;;;4.24;64.06;100613.69;5012845;28;20032;-81
2021/01/01 01:12:08;;;;;;;538.05;411.75;;;;;;;4.25;64.15;100619.94;5047933;28;20495;-81
2021/01/01 01:14:33;;;;;;;566.97;435.08;;;;;;;4.26;64.32;100616.22;5044243;28;20151;-81
2021/01/01 01:16:59;;;;;;;564.97;441.08;;;;;;;4.24;64.51;100613.69;5047092;28;20033;-81
2021/01/01 01:19:25;;;;;;;567.00;439.67;;;;;;;4.20;64.12;100617.72;5045037;28;20045;-81
2021/01/01 01:21:50;;;;;;;566.97;440.67;;;;;;;4.19;64.27;100634.03;5042827;28;20090;-81
2021/01/01 01:24:15;;;;;;;551.05;435.83;;;;;;;4.16;64.17;100621.72;5046241;28;20040;-83
2021/01/01 01:26:41;;;;;;;556.22;424.50;;;;;;;4.10;64.19;100627.75;5045423;28;20068;-81
2021/01/01 01:29:07;;;;;;;562.30;451.58;;;;;;;4.09;64.32;100628.75;5049564;28;20025;-80
2021/01/01 01:31:32;;;;;;;571.13;432.17;;;;;;;3.99;64.15;100625.34;5043056;28;20562;-81
2021/01/01 01:33:57;;;;;;;554.70;437.15;;;;;;;3.99;64.29;100636.09;5045121;28;20489;-81
2021/01/01 01:36:23;;;;;;;580.40;460.85;;;;;;;3.98;64.72;100629.03;5059898;28;20064;-81
2021/01/01 01:38:48;;;;;;;555.55;450.05;;;;;;;4.00;64.43;100627.00;5046535;28;20372;-81
2021/01/01 01:41:14;;;;;;;581.50;457.92;;;;;;;4.02;64.69;100631.25;5045461;28;20044;-81
2021/01/01 01:43:39;;;;;;;569.28;454.30;;;;;;;4.03;64.32;100637.44;5040943;28;20060;-81
2021/01/01 01:46:05;;;;;;;572.22;460.52;;;;;;;3.98;64.33;100637.09;5023246;28;20025;-81
2021/01/01 01:48:34;;;;;;;566.85;435.73;;;;;;;3.97;64.40;100641.66;5046680;28;20033;-82
2021/01/01 01:51:00;;;;;;;577.65;461.35;;;;;;;3.93;64.51;100635.72;5041323;28;20480;-81
2021/01/01 01:53:29;;;;;;;552.45;438.98;;;;;;;3.92;64.31;100634.03;5044120;28;20036;-81
2021/01/01 01:55:56;;;;;;;558.95;439.33;;;;;;;3.93;64.57;100638.41;5047178;28;20041;-81
2021/01/01 01:58:22;;;;;;;564.88;434.35;;;;;;;3.97;64.71;100638.09;5048071;28;20021;-81
2021/01/01 02:01:08;;;;;;;548.58;428.63;;;;;;;4.03;64.42;100642.84;5048030;28;20075;-82
2021/01/01 02:03:34;;;;;;;562.85;452.83;;;;;;;4.02;64.27;100641.16;5046020;28;20036;-84
2021/01/01 02:06:01;;;;;;;548.25;422.40;;;;;;;3.94;64.25;100626.66;5046368;28;20036;-82
2021/01/01 02:08:26;;;;;;;524.40;411.67;;;;;;;3.91;64.09;100635.03;5046145;28;20033;-81
2021/01/01 02:10:54;;;;;;;518.10;403.77;;;;;;;3.93;64.34;100646.47;5047542;28;20040;-82
2021/01/01 02:13:20;;;;;;;500.33;385.58;;;;;;;3.94;64.45;100644.66;5044402;28;20036;-85
2021/01/01 02:15:46;;;;;;;495.05;376.55;;;;;;;3.87;64.81;100619.38;5045020;28;20033;-82
2021/01/01 02:18:12;;;;;;;560.40;427.83;;;;;;;4.07;65.33;100650.44;5042242;28;20087;-82
2021/01/01 02:20:37;;;;;;;505.83;387.25;;;;;;;4.06;64.62;100635.31;5048335;28;20049;-82
2021/01/01 02:23:03;;;;;;;534.35;418.63;;;;;;;4.16;64.85;100655.88;5044093;28;20025;-82
2021/01/01 02:25:30;;;;;;;476.13;365.60;;;;;;;4.18;64.38;100656.56;5046662;28;20193;-86
2021/01/01 02:27:56;;;;;;;450.85;348.23;;;;;;;4.07;64.34;100652.28;5049836;28;20049;-82
2021/01/01 02:30:21;;;;;;;438.77;348.40;;;;;;;4.13;64.34;100652.47;5046582;28;20487;-83
2021/01/01 02:32:47;;;;;;;472.95;374.13;;;;;;;4.17;64.60;100655.72;5046240;28;20078;-83
2021/01/01 02:35:12;;;;;;;448.13;353.70;;;;;;;4.16;64.23;100662.09;5045858;28;20419;-83
2021/01/01 02:37:38;;;;;;;477.55;355.65;;;;;;;4.17;64.75;100661.09;5028788;28;20036;-82
2021/01/01 02:40:05;;;;;;;466.08;373.05;;;;;;;4.22;64.52;100661.47;5048420;28;20120;-85
2021/01/01 02:42:30;;;;;;;465.98;365.50;;;;;;;4.17;64.62;100655.72;5047673;28;20529;-82
2021/01/01 02:44:56;;;;;;;499.95;392.95;;;;;;;4.28;64.59;100666.22;5049007;28;20033;-83
2021/01/01 02:47:21;;;;;;;437.52;354.10;;;;;;;4.34;64.28;100661.19;5048233;28;20064;-83
2021/01/01 02:49:47;;;;;;;438.70;345.85;;;;;;;4.38;64.55;100668.78;5049853;28;20021;-84
2021/01/01 02:52:12;;;;;;;425.13;325.20;;;;;;;4.41;64.45;100662.25;5047857;28;20439;-84
2021/01/01 02:54:37;;;;;;;411.90;321.15;;;;;;;4.43;64.38;100671.84;5048908;28;20052;-84
2021/01/01 02:57:03;;;;;;;393.60;315.60;;;;;;;4.43;64.36;100660.22;5050587;28;20775;-85
2021/01/01 02:59:28;;;;;;;386.60;315.55;;;;;;;4.47;64.38;100667.81;5048275;28;20037;-85
2021/01/01 03:01:54;;;;;;;428.65;337.92;;;;;;;4.52;64.74;100661.94;5047579;28;20079;-85
2021/01/01 03:04:19;;;;;;;381.85;302.10;;;;;;;4.55;64.49;100664.31;5047741;28;20033;-85
2021/01/01 03:06:45;;;;;;;390.30;320.33;;;;;;;4.58;64.75;100661.28;5050108;28;20139;-85
2021/01/01 03:09:10;;;;;;;352.58;281.20;;;;;;;4.66;64.43;100666.75;5044885;28;20025;-84
2021/01/01 03:11:36;;;;;;;353.20;287.88;;;;;;;4.68;64.43;100652.25;5033977;28;20095;-85
2021/01/01 03:14:01;;;;;;;332.92;266.90;;;;;;;4.68;64.35;100658.50;5046892;28;20052;-85
2021/01/01 03:16:26;;;;;;;314.88;247.73;;;;;;;4.72;64.25;100653.63;5047399;28;20033;-84
2021/01/01 03:18:52;;;;;;;298.48;224.77;;;;;;;4.75;64.31;100658.69;5049675;28;20029;-84
2021/01/01 03:21:18;;;;;;;302.85;226.88;;;;;;;4.74;64.39;100647.06;5051717;28;20374;-84
2021/01/01 03:23:43;;;;;;;286.00;227.68;;;;;;;4.80;64.12;100656.31;5034226;28;20082;-84
2021/01/01 03:26:09;;;;;;;272.15;202.48;;;;;;;4.71;64.30;100644.69;5052178;28;20032;-84
2021/01/01 03:28:34;;;;;;;279.80;214.57;;;;;;;4.78;64.39;100653.78;5033783;28;20045;-84
2021/01/01 03:31:01;;;;;;;288.67;218.85;;;;;;;4.81;64.69;100655.34;5054019;28;20051;-84
2021/01/01 03:33:26;;;;;;;280.52;226.85;;;;;;;4.83;64.57;100651.47;5051809;28;20021;-86
2021/01/01 03:35:52;;;;;;;260.90;207.98;;;;;;;4.89;64.11;100658.03;5050539;28;20041;-86
2021/01/01 03:38:17;;;;;;;287.42;220.10;;;;;;;4.89;64.72;100655.34;5051701;28;20033;-86
2021/01/01 03:40:43;;;;;;;248.75;191.50;;;;;;;4.96;64.63;100659.09;5031903;28;20136;-86
2021/01/01 03:43:08;;;;;;;254.95;202.07;;;;;;;5.04;64.48;100657.44;5051282;28;20053;-86
2021/01/01 03:45:33;;;;;;;233.23;176.32;;;;;;;5.06;64.39;100650.84;5051174;28;20104;-86
2021/01/01 03:47:59;;;;;;;220.88;161.60;;;;;;;5.11;64.43;100658.44;5029638;28;20033;-86
2021/01/01 03:50:24;;;;;;;215.70;158.32;;;;;;;5.13;64.56;100651.03;5051293;28;20039;-86
2021/01/01 03:52:50;;;;;;;216.63;164.60;;;;;;;5.11;64.38;100647.66;5050809;28;20024;-86
2021/01/01 03:55:15;;;;;;;237.10;181.07;;;;;;;5.14;64.53;100652.72;5040868;28;20417;-85
2021/01/01 03:57:40;;;;;;;215.75;158.85;;;;;;;5.11;64.45;100640.44;5053260;28;20029;-86
2021/01/01 04:00:09;;;;;;;205.93;161.50;;;;;;;5.20;64.29;100660.13;5028451;28;20037;-86
2021/01/01 04:02:35;;;;;;;185.82;137.02;;;;;;;5.22;64.33;100652.75;5045782;28;20048;-86
2021/01/01 04:05:00;;;;;;;195.68;148.77;;;;;;;5.25;64.39;100659.63;5050231;28;20032;-85
2021/01/01 04:07:25;;;;;;;186.40;147.10;;;;;;;5.24;64.36;100658.81;5052258;28;20037;-85
2021/01/01 04:09:51;;;;;;;178.05;134.57;;;;;;;5.22;64.17;100650.06;5047256;28;20040;-86
2021/01/01 04:12:18;;;;;;;212.02;152.68;;;;;;;5.15;64.20;100646.31;5048597;28;20025;-85
2021/01/01 04:14:44;;;;;;;174.15;133.63;;;;;;;5.20;64.17;100649.34;5051116;28;20441;-85
2021/01/01 04:17:10;;;;;;;205.23;147.10;;;;;;;5.11;64.16;100651.22;5049982;28;20056;-86
2021/01/01 04:19:35;;;;;;;181.73;133.05;;;;;;;5.14;64.08;100655.41;5048876;28;20040;-85
2021/01/01 04:22:00;;;;;;;180.73;128.75;;;;;;;5.14;64.03;100655.41;5050934;28;20033;-85
2021/01/01 04:24:26;;;;;;;181.98;133.60;;;;;;;5.16;64.45;100662.31;5032415;28;20094;-85
2021/01/01 04:26:51;;;;;;;172.57;125.90;;;;;;;5.18;64.37;100656.78;5051242;28;20029;-86
2021/01/01 04:29:17;;;;;;;176.55;123.47;;;;;;;5.17;64.28;100652.38;5049907;28;20029;-86
2021/01/01 04:31:43;;;;;;;179.48;136.75;;;;;;;5.16;64.22;100656.94;5051029;28;20075;-85
2021/01/01 04:34:08;;;;;;;166.52;121.68;;;;;;;5.16;64.34;100651.53;5049140;28;20125;-85
2021/01/01 04:36:35;;;;;;;201.25;144.70;;;;;;;5.14;64.54;100650.88;5044516;28;20029;-85
2021/01/01 04:39:01;;;;;;;185.00;139.55;;;;;;;5.16;64.40;100658.81;5049433;28;20059;-85
2021/01/01 04:41:26;;;;;;;186.48;130.43;;;;;;;5.18;64.37;100651.38;5049150;28;20048;-86
2021/01/01 04:43:52;;;;;;;171.70;124.45;;;;;;;5.10;64.23;100652.22;5051889;28;20038;-85
2021/01/01 04:46:18;;;;;;;165.93;115.50;;;;;;;5.15;64.35;100651.72;5049053;28;20032;-85
2021/01/01 04:48:45;;;;;;;182.05;133.95;;;;;;;5.17;64.47;100655.06;5050421;28;20044;-85
2021/01/01 04:51:11;;;;;;;173.73;126.38;;;;;;;5.24;64.30;100658.81;5051798;28;20152;-85
2021/01/01 04:53:38;;;;;;;178.02;123.68;;;;;;;5.22;64.31;100654.56;5049011;28;20403;-85
2021/01/01 04:56:04;;;;;;;185.25;129.93;;;;;;;5.23;64.30;100656.28;5049725;28;20075;-85
2021/01/01 04:58:30;;;;;;;183.63;129.98;;;;;;;5.29;64.06;100664.53;5050274;28;20037;-85
2021/01/01 05:00:56;;;;;;;172.45;127.57;;;;;;;5.28;64.36;100660.13;5046496;28;20036;-85
2021/01/01 05:03:21;;;;;;;178.93;129.43;;;;;;;5.27;64.28;100653.09;5048851;28;20068;-86
2021/01/01 05:05:48;;;;;;;163.52;115.43;;;;;;;5.25;64.21;100651.56;5049716;28;20029;-85
2021/01/01 05:08:15;;;;;;;171.68;127.03;;;;;;;5.28;64.60;100659.31;5047877;28;20504;-86
2021/01/01 05:10:41;;;;;;;176.85;123.90;;;;;;;5.26;64.10;100648.69;5050288;28;20094;-86
2021/01/01 05:13:14;;;;;;;192.48;142.68;;;;;;;5.18;64.20;100640.59;5049123;28;20482;-85
2021/01/01 05:15:40;;;;;;;196.38;143.82;;;;;;;5.24;64.24;100647.19;5049117;28;20029;-85
2021/01/01 05:18:19;;;;;;;181.30;134.65;;;;;;;5.20;64.17;100646.66;5032397;28;20407;-85
2021/01/01 05:20:46;;;;;;;197.00;151.05;;;;;;;5.15;64.05;100657.94;5045288;28;20041;-86
2021/01/01 05:23:40;;;;;;;187.30;134.77;;;;;;;5.13;64.19;100648.34;5046289;28;20624;-86
2021/01/01 05:26:12;;;;;;;208.38;153.60;;;;;;;5.12;64.21;100658.25;5045758;28;20376;-86
2021/01/01 05:29:08;;;;;;;193.73;145.57;;;;;;;5.13;64.44;100651.03;5043039;28;20047;-84
2021/01/01 05:31:41;;;;;;;206.45;154.30;;;;;;;5.08;64.02;100659.63;5044083;28;20795;-86
2021/01/01 05:34:13;;;;;;;195.30;144.68;;;;;;;5.05;64.06;100659.97;5048397;28;20025;-86
2021/01/01 05:36:43;;;;;;;214.68;155.32;;;;;;;5.04;64.36;100658.25;5049611;28;20448;-86
2021/01/01 05:39:20;;;;;;;187.43;137.35;;;;;;;5.08;64.41;100658.75;5046717;28;20061;-85
2021/01/01 05:41:50;;;;;;;180.73;136.85;;;;;;;5.09;64.35;100661.28;5047293;28;20456;-85
2021/01/01 05:44:36;;;;;;;183.80;137.83;;;;;;;5.09;64.08;100666.69;5045275;28;20041;-84
2021/01/01 05:47:06;;;;;;;186.93;137.15;;;;;;;5.10;64.62;100659.47;5047049;28;20025;-86
2021/01/01 05:49:34;;;;;;;176.63;122.40;;;;;;;5.12;64.33;100657.44;5047762;28;20058;-86
2021/01/01 05:52:07;;;;;;;178.52;138.60;;;;;;;5.20;64.31;100663.69;5050540;28;20040;-85
2021/01/01 05:54:34;;;;;;;159.10;119.82;;;;;;;5.22;64.31;100670.75;5042440;28;20064;-84
2021/01/01 05:57:03;;;;;;;179.80;127.90;;;;;;;5.25;64.20;100667.72;5047891;28;20063;-85
2021/01/01 05:59:29;;;;;;;175.90;126.57;;;;;;;5.24;64.19;100668.75;5047519;28;20536;-85
2021/01/01 06:01:58;;;;;;;181.90;127.55;;;;;;;5.25;64.34;100676.69;5047785;28;20028;-85
2021/01/01 06:04:24;;;;;;;178.15;126.35;;;;;;;5.14;65.05;100685.91;5048372;28;20045;-85
2021/01/01 06:06:53;;;;;;;156.57;115.15;;;;;;;5.37;65.26;100687.97;5046614;28;20060;-86
2021/01/01 06:09:22;;;;;;;156.30;116.93;;;;;;;5.56;64.66;100687.66;5045771;28;20060;-85
2021/01/01 06:11:58;;;;;;;144.50;112.07;;;;;;;5.59;64.55;100686.47;5048667;28;20098;-86
2021/01/01 06:14:34;;;;;;;131.77;94.20;;;;;;;5.60;64.65;100690.03;5044743;28;20128;-86
2021/01/01 06:17:11;;;;;;;115.57;79.15;;;;;;;5.67;64.76;100696.41;5048318;28;20033;-85
2021/01/01 06:19:50;;;;;;;128.98;90.78;;;;;;;5.71;64.95;100693.22;5044919;28;20063;-85
2021/01/01 06:22:20;;;;;;;126.68;103.50;;;;;;;5.76;64.90;100710.75;5047772;28;20032;-87
2021/01/01 06:24:54;;;;;;;128.40;93.60;;;;;;;5.82;64.45;100704.69;5048252;28;20071;-88
2021/01/01 06:27:22;;;;;;;127.30;97.63;;;;;;;5.83;64.57;100701.00;5045392;28;20039;-86
2021/01/01 06:29:50;;;;;;;113.95;88.32;;;;;;;5.85;64.42;100709.75;5050328;28;20021;-86
2021/01/01 06:32:19;;;;;;;113.10;86.85;;;;;;;5.86;64.42;100709.59;5050223;28;20098;-88
2021/01/01 06:34:44;;;;;;;111.57;83.43;;;;;;;5.88;64.52;100725.59;5049167;28;20051;-88
2021/01/01 06:37:42;;;;;;;107.70;81.78;;;;;;;5.85;64.38;100715.97;5047726;28;20659;-87
2021/01/01 06:40:34;;;;;;;103.72;78.88;;;;;;;5.90;64.41;100719.03;5041632;28;20033;-89
2021/01/01 06:43:07;;;;;;;98.45;74.22;;;;;;;5.93;64.29;100731.34;5049271;28;20033;-88
2021/01/01 06:45:44;;;;;;;104.18;81.38;;;;;;;5.95;64.36;100731.16;5047932;28;20446;-88
2021/01/01 06:48:13;;;;;;;103.80;78.65;;;;;;;5.96;64.30;100728.28;5046666;28;20044;-88
2021/01/01 06:50:41;;;;;;;94.43;68.95;;;;;;;5.96;64.64;100732.88;5050208;28;20071;-87
2021/01/01 06:53:09;;;;;;;82.10;61.08;;;;;;;6.02;64.43;100734.91;5044961;28;20029;-83
2021/01/01 06:55:42;;;;;;;77.95;56.67;;;;;;;6.06;64.50;100738.97;5036466;28;20518;-83
2021/01/01 06:58:08;;;;;;;95.80;69.13;;;;;;;5.98;65.03;100731.72;5043852;28;20119;-83
2021/01/01 07:00:49;;;;;;;80.47;61.85;;;;;;;6.15;64.89;100737.09;5031681;28;20082;-83
2021/01/01 07:03:27;;;;;;;81.82;57.53;;;;;;;6.21;64.95;100744.50;5041597;28;20406;-84
2021/01/01 07:06:02;;;;;;;86.95;61.78;;;;;;;6.23;64.91;100740.63;5047192;28;20132;-84
2021/01/01 07:08:42;;;;;;;85.03;60.97;;;;;;;6.28;64.84;100742.81;5046700;28;20035;-84
2021/01/01 07:11:08;;;;;;;82.50;61.25;;;;;;;6.35;64.69;100748.38;5047698;28;20025;-84
2021/01/01 07:13:53;;;;;;;80.47;61.45;;;;;;;6.37;64.90;100749.91;5048751;28;20127;-84
2021/01/01 07:16:21;;;;;;;75.95;57.58;;;;;;;6.40;64.59;100738.75;5044944;28;20089;-83
2021/01/01 07:18:47;;;;;;;58.90;44.58;;;;;;;6.48;65.09;100742.47;5046650;28;20040;-84
2021/01/01 07:21:15;;;;;;;54.47;45.40;;;;;;;6.60;65.20;100735.69;5047174;28;20029;-84
2021/01/01 07:23:41;;;;;;;55.20;39.58;;;;;;;6.72;65.09;100739.69;5028726;28;20690;-83
2021/01/01 07:26:07;;;;;;;59.55;47.05;;;;;;;6.68;64.69;100732.13;5047682;28;20021;-84
2021/01/01 07:28:33;;;;;;;58.42;47.85;;;;;;;6.68;64.77;100732.94;5026972;28;20075;-84
2021/01/01 07:30:59;;;;;;;67.57;53.33;;;;;;;6.66;64.91;100734.13;5046828;28;20029;-84
2021/01/01 07:33:26;;;;;;;76.68;59.15;;;;;;;6.68;64.82;100737.53;5047130;28;20025;-84
2021/01/01 07:35:52;;;;;;;65.47;53.00;;;;;;;6.60;64.49;100744.63;5043979;28;20037;-83
2021/01/01 07:38:18;;;;;;;65.68;52.20;;;;;;;6.62;64.61;100733.66;5045528;28;20055;-83
2021/01/01 07:40:47;;;;;;;79.38;60.28;;;;;;;6.54;64.80;100737.22;5037319;28;20503;-84
2021/01/01 07:43:13;;;;;;;78.47;60.40;;;;;;;6.58;64.93;100738.56;5044693;28;20115;-83
2021/01/01 07:45:38;;;;;;;80.90;59.30;;;;;;;6.53;64.88;100746.31;5046223;28;20562;-83
2021/01/01 07:48:04;;;;;;;80.53;61.25;;;;;;;6.48;64.90;100742.47;5047485;28;20037;-83
2021/01/01 07:50:31;;;;;;;80.63;56.97;;;;;;;6.48;64.94;100737.91;5046599;28;20058;-83
2021/01/01 07:53:04;;;;;;;88.82;62.05;;;;;;;6.51;64.99;100736.72;5044607;28;20032;-83
2021/01/01 07:55:30;;;;;;;87.95;65.10;;;;;;;6.57;64.95;100742.28;5046301;28;20144;-83
2021/01/01 07:58:19;;;;;;;89.20;66.45;;;;;;;6.61;64.89;100745.47;5045966;28;20383;-83
2021/01/01 08:00:47;;;;;;;83.72;63.17;;;;;;;6.63;64.88;100748.84;5044431;28;20048;-83
2021/01/01 08:03:14;;;;;;;83.40;62.17;;;;;;;6.52;64.74;100743.78;5045338;28;20035;-84
2021/01/01 08:05:44;;;;;;;77.82;56.38;;;;;;;6.59;64.69;100761.84;5049748;28;20037;-84
2021/01/01 08:08:22;;;;;;;78.10;58.17;;;;;;;6.63;64.86;100767.75;5049279;28;20028;-84
2021/01/01 08:10:48;;;;;;;77.63;57.30;;;;;;;6.60;64.92;100762.72;5047720;28;20442;-84
2021/01/01 08:13:24;;;;;;;82.63;58.35;;;;;;;6.59;64.99;100767.25;5048094;28;20116;-84
2021/01/01 08:15:51;;;;;;;85.28;69.93;;;;;;;6.67;65.12;100773.66;5047906;28;20596;-83
2021/01/01 08:18:19;;;;;;;87.38;64.97;;;;;;;6.73;64.96;100779.19;5051055;28;20032;-83
2021/01/01 08:20:55;;;;;;;97.60;72.13;;;;;;;6.77;65.02;100777.84;5052798;28;20135;-83
2021/01/01 08:23:20;;;;;;;99.60;74.07;;;;;;;6.78;65.26;100775.97;5047546;28;20719;-82
2021/01/01 08:25:47;;;;;;;100.03;76.68;;;;;;;6.87;65.13;100771.41;5051258;28;20029;-83
2021/01/01 08:28:17;;;;;;;116.47;83.35;;;;;;;6.91;65.17;100772.75;5048690;28;20029;-83
2021/01/01 08:30:43;;;;;;;100.85;73.60;;;;;;;6.96;65.16;100779.31;5049433;28;20018;-83
2021/01/01 08:33:09;;;;;;;95.82;67.88;;;;;;;6.99;65.34;100783.53;5047575;28;20048;-82
2021/01/01 08:35:35;;;;;;;102.68;79.80;;;;;;;7.00;65.07;100785.22;5060385;28;20550;-83
2021/01/01 08:38:18;;;;;;;98.60;77.30;;;;;;;7.05;65.07;100784.72;5047677;28;20040;-82
2021/01/01 08:40:44;;;;;;;101.75;80.55;;;;;;;7.06;64.89;100778.25;5049230;28;20064;-82
2021/01/01 08:43:10;;;;;;;98.70;72.80;;;;;;;7.09;65.04;100788.72;5049724;28;20052;-81
2021/01/01 08:45:36;;;;;;;99.32;77.60;;;;;;;7.09;64.96;100781.47;5044746;28;20064;-82
2021/01/01 08:48:10;;;;;;;102.13;79.50;;;;;;;7.20;65.03;100791.06;5048035;28;20037;-82
2021/01/01 08:50:48;;;;;;;120.15;89.25;;;;;;;7.20;65.20;100785.66;5048661;28;20072;-81
2021/01/01 08:53:14;;;;;;;101.03;77.32;;;;;;;7.28;65.10;100790.19;5051400;28;20458;-81
2021/01/01 08:55:40;;;;;;;107.03;80.05;;;;;;;7.32;64.95;100792.38;5046972;28;20395;-81
2021/01/01 08:58:17;;;;;;;106.43;78.15;;;;;;;7.41;65.11;100786.91;5031333;28;20131;-81
2021/01/01 09:00:44;;;;;;;97.85;68.18;;;;;;;7.50;64.86;100789.38;5047261;28;20037;-81
2021/01/01 09:03:10;;;;;;;94.78;66.45;;;;;;;7.57;64.84;100786.81;5047634;28;20854;-82
2021/01/01 09:05:36;;;;;;;102.95;76.07;;;;;;;7.63;64.76;100794.22;5049348;28;20029;-82
2021/01/01 09:08:11;;;;;;;96.30;69.45;;;;;;;7.69;64.80;100796.22;5030437;28;20029;-82
2021/01/01 09:10:41;;;;;;;92.20;65.20;;;;;;;7.72;64.87;100803.13;5042478;28;20048;-82
2021/01/01 09:13:27;;;;;;;101.47;69.25;;;;;;;7.76;64.64;100801.75;5048341;28;20033;-81
2021/01/01 09:16:11;;;;;;;94.78;68.80;;;;;;;7.83;64.40;100801.88;5047120;28;20613;-81
2021/01/01 09:18:36;;;;;;;97.88;75.53;;;;;;;7.90;64.84;100805.56;5049213;28;20068;-82
2021/01/01 09:21:12;;;;;;;97.45;75.32;;;;;;;7.93;64.11;100801.66;5043012;28;20060;-82
2021/01/01 09:23:39;;;;;;;92.25;68.40;;;;;;;7.96;64.32;100795.88;5048470;28;20125;-82
2021/01/01 09:26:05;;;;;;;97.30;76.15;;;;;;;8.10;64.38;100811.34;5030703;28;20040;-83
2021/01/01 09:28:31;;;;;;;93.93;72.80;;;;;;;8.20;64.57;100803.81;5046289;28;20041;-82
2021/01/01 09:30:56;;;;;;;88.10;59.65;;;;;;;8.36;64.46;100812.84;5047011;28;20479;-82
2021/01/01 09:33:21;;;;;;;90.35;58.90;;;;;;;8.43;64.13;100816.47;5047001;28;20503;-82
2021/01/01 09:35:47;;;;;;;88.57;62.78;;;;;;;8.52;64.11;100820.81;5046941;28;20033;-81
2021/01/01 09:38:13;;;;;;;90.40;65.65;;;;;;;8.56;63.97;100814.03;5045776;28;20138;-82
2021/01/01 09:40:38;;;;;;;94.50;65.90;;;;;;;8.53;64.07;100817.09;5046520;28;20396;-81
2021/01/01 09:43:05;;;;;;;97.85;68.72;;;;;;;8.55;63.97;100820.47;5048305;28;20041;-81
2021/01/01 09:45:32;;;;;;;99.25;71.30;;;;;;;8.49;64.03;100815.78;5046559;28;20069;-81
2021/01/01 09:47:57;;;;;;;108.35;71.85;;;;;;;8.43;63.96;100816.47;5050086;28;20037;-82
2021/01/01 09:50:22;;;;;;;106.25;72.22;;;;;;;8.50;64.06;100820.19;5028400;28;20067;-81
2021/01/01 09:52:48;;;;;;;103.38;74.80;;;;;;;8.52;64.03;100823.53;5049607;28;20116;-81
2021/01/01 09:55:13;;;;;;;93.25;65.07;;;;;;;8.63;64.08;100824.97;5047093;28;20036;-82
2021/01/01 09:57:39;;;;;;;91.32;63.47;;;;;;;8.63;64.33;100824.97;5045249;28;20032;-82
2021/01/01 10:00:09;;;;;;;84.97;58.45;;;;;;;8.79;64.30;100829.41;5046690;28;20029;-81
2021/01/01 10:02:34;;;;;;;75.80;52.75;;;;;;;8.89;64.20;100832.66;5046229;28;20143;-81
2021/01/01 10:05:00;;;;;;;71.18;52.30;;;;;;;8.95;64.08;100834.63;5044355;28;20029;-81
2021/01/01 10:07:29;;;;;;;71.30;52.20;;;;;;;8.96;64.14;100838.22;5046789;28;20494;-81
2021/01/01 10:09:55;;;;;;;64.35;46.47;;;;;;;9.04;64.16;100840.00;5037669;28;20495;-81
2021/01/01 10:12:25;;;;;;;59.92;40.67;;;;;;;9.05;64.01;100836.22;5045977;28;20052;-82
2021/01/01 10:14:54;;;;;;;64.63;45.47;;;;;;;9.11;64.04;100843.63;5047275;28;20037;-81
2021/01/01 10:17:23;;;;;;;62.90;46.20;;;;;;;9.09;63.91;100840.28;5047328;28;20052;-82
2021/01/01 10:19:49;;;;;;;53.97;41.22;;;;;;;9.12;64.04;100845.31;5046360;28;20132;-81
2021/01/01 10:22:14;;;;;;;52.22;38.92;;;;;;;9.10;63.87;100842.78;5045372;28;20037;-81
2021/01/01 10:24:40;;;;;;;51.63;38.42;;;;;;;9.11;63.80;100847.19;5045285;28;20041;-82
2021/01/01 10:27:05;;;;;;;53.92;39.28;;;;;;;9.07;63.48;100842.34;5047050;28;20040;-81
2021/01/01 10:29:31;;;;;;;50.00;34.85;;;;;;;9.06;63.67;100841.47;5044771;28;20033;-81
2021/01/01 10:32:22;;;;;;;52.17;37.65;;;;;;;9.07;63.87;100853.19;5047811;28;20087;-80
2021/01/01 10:34:48;;;;;;;55.78;38.55;;;;;;;9.03;63.84;100835.59;5045509;28;20052;-81
2021/01/01 10:37:13;;;;;;;54.00;37.92;;;;;;;9.03;63.82;100847.28;5041957;28;20037;-81
2021/01/01 10:39:39;;;;;;;55.85;41.72;;;;;;;9.09;63.82;100846.53;5044990;28;20040;-81
2021/01/01 10:42:08;;;;;;;58.75;39.60;;;;;;;9.07;63.77;100853.19;5044292;28;20048;-81
2021/01/01 10:44:34;;;;;;;61.75;44.85;;;;;;;9.00;64.06;100842.22;5044102;28;20051;-82
2021/01/01 10:46:59;;;;;;;60.05;41.47;;;;;;;9.09;63.81;100851.13;5044628;28;20724;-81
2021/01/01 10:49:26;;;;;;;58.55;40.33;;;;;;;9.10;64.01;100852.81;5020961;28;20841;-83
2021/01/01 10:51:55;;;;;;;62.00;42.65;;;;;;;9.14;64.05;100849.53;5047137;28;20475;-81
2021/01/01 10:54:20;;;;;;;63.72;47.88;;;;;;;9.24;64.06;100849.25;5043397;28;20041;-81
2021/01/01 10:56:46;;;;;;;65.97;49.17;;;;;;;9.24;63.97;100843.81;5044950;28;20143;-81
2021/01/01 10:59:12;;;;;;;66.97;47.83;;;;;;;9.34;63.90;100842.69;5042640;28;20060;-81
2021/01/01 11:01:37;;;;;;;67.40;46.47;;;;;;;9.42;63.73;100846.16;5043892;28;20372;-81
2021/01/01 11:04:03;;;;;;;79.32;54.15;;;;;;;9.42;63.75;100834.44;5044240;28;20029;-81
2021/01/01 11:06:28;;;;;;;73.32;50.00;;;;;;;9.52;63.84;100845.84;5047294;28;20545;-81
2021/01/01 11:08:54;;;;;;;74.07;53.95;;;;;;;9.52;63.76;100832.28;5044925;28;20067;-82
2021/01/01 11:11:22;;;;;;;80.65;61.17;;;;;;;9.56;63.54;100835.44;5041262;28;20058;-81